createdAt,value
2018-12-15T00:02:21.735Z,51.28
2018-12-15T00:04:52.394Z,49.53
2018-12-15T00:07:23.038Z,49.25
2018-12-15T00:09:51.774Z,47.35
2018-12-15T00:12:20.430Z,52.07
2018-12-15T00:14:49.158Z,49.20
2018-12-15T00:17:17.934Z,50.95
2018-12-15T00:19:46.657Z,51.18
2018-12-15T00:22:15.317Z,53.98
2018-12-15T00:24:44.038Z,52.00
2018-12-15T00:27:12.774Z,50.15
2018-12-15T00:29:41.666Z,52.43
2018-12-15T00:32:10.386Z,54.48
2018-12-15T00:34:39.119Z,56.77
2018-12-15T00:37:07.850Z,58.20
2018-12-15T00:39:36.500Z,52.62
2018-12-15T00:42:05.234Z,52.08
2018-12-15T00:44:33.946Z,51.63
2018-12-15T00:47:02.722Z,57.58
2018-12-15T00:49:31.378Z,59.15
2018-12-15T00:52:00.142Z,55.03
2018-12-15T00:54:28.863Z,56.10
2018-12-15T00:56:57.527Z,51.75
2018-12-15T00:59:26.192Z,55.58
2018-12-15T01:01:54.904Z,61.90
2018-12-15T01:04:23.614Z,54.38
2018-12-15T01:06:52.366Z,56.05
2018-12-15T01:09:21.102Z,56.35
2018-12-15T01:11:49.832Z,57.30
2018-12-15T01:14:18.487Z,54.48
2018-12-15T01:16:47.183Z,55.83
2018-12-15T01:19:15.894Z,56.17
2018-12-15T01:21:44.570Z,53.23
2018-12-15T01:24:13.289Z,57.45
2018-12-15T01:26:42.030Z,56.20
2018-12-15T01:29:11.783Z,60.67
2018-12-15T01:31:40.498Z,61.58
2018-12-15T01:34:09.226Z,62.00
2018-12-15T01:36:37.888Z,61.03
2018-12-15T01:39:08.354Z,59.53
2018-12-15T01:41:37.173Z,59.40
2018-12-15T01:44:05.884Z,56.30
2018-12-15T01:46:34.583Z,64.62
2018-12-15T01:49:03.335Z,60.48
2018-12-15T01:51:32.106Z,61.23
2018-12-15T01:54:00.806Z,60.48
2018-12-15T01:56:29.464Z,60.48
2018-12-15T01:58:58.166Z,60.73
2018-12-15T02:01:26.881Z,55.33
2018-12-15T02:03:55.573Z,58.90
2018-12-15T02:06:24.291Z,63.50
2018-12-15T02:08:53.043Z,59.58
2018-12-15T02:11:23.697Z,66.12
2018-12-15T02:13:53.515Z,57.85
2018-12-15T02:16:22.226Z,59.63
2018-12-15T02:18:50.943Z,60.25
2018-12-15T02:21:19.639Z,64.57
2018-12-15T02:23:48.335Z,64.05
2018-12-15T02:26:17.042Z,57.58
2018-12-15T02:28:45.759Z,61.30
2018-12-15T02:31:14.450Z,62.20
2018-12-15T02:33:44.171Z,59.45
2018-12-15T02:36:12.875Z,60.83
2018-12-15T02:38:41.573Z,60.05
2018-12-15T02:41:10.296Z,67.22
2018-12-15T02:43:39.022Z,62.15
2018-12-15T02:46:07.756Z,58.15
2018-12-15T02:48:36.478Z,62.73
2018-12-15T02:51:05.194Z,64.32
2018-12-15T02:53:33.923Z,61.20
2018-12-15T02:56:02.590Z,62.03
2018-12-15T02:58:31.304Z,62.55
2018-12-15T03:01:00.011Z,58.13
2018-12-15T03:03:28.742Z,63.25
2018-12-15T03:05:57.450Z,63.77
2018-12-15T03:08:26.174Z,64.12
2018-12-15T03:10:54.827Z,61.10
2018-12-15T03:13:23.538Z,67.03
2018-12-15T03:15:52.260Z,64.10
2018-12-15T03:18:21.066Z,64.87
2018-12-15T03:21:01.198Z,65.80
2018-12-15T03:23:29.859Z,65.45
2018-12-15T03:25:58.834Z,73.20
2018-12-15T03:28:27.508Z,68.42
2018-12-15T03:30:56.226Z,69.80
2018-12-15T03:33:25.008Z,64.72
2018-12-15T03:35:53.734Z,69.22
2018-12-15T03:38:22.450Z,68.57
2018-12-15T03:40:51.166Z,75.85
2018-12-15T03:43:19.916Z,73.50
2018-12-15T03:45:48.612Z,75.85
2018-12-15T03:48:17.311Z,70.40
2018-12-15T03:50:46.019Z,70.60
2018-12-15T03:53:14.745Z,70.15
2018-12-15T03:55:43.444Z,72.32
2018-12-15T03:58:12.213Z,74.42
2018-12-15T04:00:40.925Z,69.00
2018-12-15T04:03:09.587Z,69.12
2018-12-15T04:05:38.302Z,73.62
2018-12-15T04:08:06.989Z,70.20
2018-12-15T04:10:35.997Z,72.05
2018-12-15T04:13:04.800Z,68.45
2018-12-15T04:15:33.559Z,70.57
2018-12-15T04:18:03.858Z,70.75
2018-12-15T04:20:32.809Z,71.00
2018-12-15T04:23:01.547Z,75.62
2018-12-15T04:25:30.326Z,71.50
2018-12-15T04:27:59.031Z,71.57
2018-12-15T04:30:27.879Z,69.62
2018-12-15T04:32:56.558Z,74.77
2018-12-15T04:35:25.386Z,75.75
2018-12-15T04:37:54.111Z,77.67
2018-12-15T04:40:23.271Z,75.90
2018-12-15T04:42:51.990Z,77.23
2018-12-15T04:45:20.807Z,77.82
2018-12-15T04:47:49.647Z,74.83
2018-12-15T04:50:18.347Z,78.97
2018-12-15T04:52:47.043Z,74.42
2018-12-15T04:55:15.741Z,81.50
2018-12-15T04:57:44.517Z,74.97
2018-12-15T05:00:13.279Z,79.05
2018-12-15T05:02:44.058Z,82.50
2018-12-15T05:05:12.786Z,77.22
2018-12-15T05:07:41.479Z,75.35
2018-12-15T05:10:11.271Z,76.70
2018-12-15T05:12:39.960Z,75.80
2018-12-15T05:15:08.752Z,81.78
2018-12-15T05:17:37.460Z,79.30
2018-12-15T05:20:07.429Z,81.10
2018-12-15T05:22:36.306Z,81.40
2018-12-15T05:25:06.115Z,82.90
2018-12-15T05:27:34.843Z,82.08
2018-12-15T05:30:03.734Z,84.58
2018-12-15T05:32:32.465Z,83.80
2018-12-15T05:35:01.255Z,81.57
2018-12-15T05:37:30.099Z,81.85
2018-12-15T05:39:58.823Z,87.60
2018-12-15T05:42:27.571Z,82.85
2018-12-15T05:44:56.335Z,86.53
2018-12-15T05:47:25.083Z,81.60
2018-12-15T05:49:53.762Z,84.73
2018-12-15T05:52:22.458Z,88.03
2018-12-15T05:54:51.155Z,87.92
2018-12-15T05:57:19.914Z,82.75
2018-12-15T05:59:48.618Z,87.55
2018-12-15T06:02:18.119Z,82.00
2018-12-15T06:04:46.866Z,93.53
2018-12-15T06:07:15.586Z,87.73
2018-12-15T06:09:44.327Z,86.22
2018-12-15T06:12:13.091Z,88.25
2018-12-15T06:14:41.844Z,82.80
2018-12-15T06:17:10.675Z,91.12
2018-12-15T06:19:39.500Z,88.00
2018-12-15T06:22:08.263Z,82.60
2018-12-15T06:24:37.397Z,86.50
2018-12-15T06:27:06.119Z,89.35
2018-12-15T06:29:34.867Z,81.25
2018-12-15T06:32:03.699Z,81.93
2018-12-15T06:34:32.463Z,84.20
2018-12-15T06:37:01.166Z,86.72
2018-12-15T06:39:29.991Z,85.72
2018-12-15T06:41:58.756Z,84.80
2018-12-15T06:44:27.591Z,81.02
2018-12-15T06:46:56.287Z,93.13
2018-12-15T06:49:25.893Z,86.30
2018-12-15T06:51:54.591Z,82.10
2018-12-15T06:54:23.297Z,85.27
2018-12-15T06:56:51.990Z,84.77
2018-12-15T06:59:20.746Z,86.85
2018-12-15T07:01:49.523Z,84.13
2018-12-15T07:04:18.279Z,86.50
2018-12-15T07:06:47.039Z,84.30
2018-12-15T07:09:15.782Z,81.00
2018-12-15T07:11:44.526Z,86.10
2018-12-15T07:14:13.264Z,82.50
2018-12-15T07:16:41.991Z,84.80
2018-12-15T07:19:10.794Z,81.20
2018-12-15T07:21:39.531Z,84.90
2018-12-15T07:24:08.790Z,82.95
2018-12-15T07:26:37.596Z,88.62
2018-12-15T07:29:06.423Z,87.50
2018-12-15T07:31:35.206Z,85.60
2018-12-15T07:34:03.973Z,86.55
2018-12-15T07:36:32.831Z,87.50
2018-12-15T07:39:01.563Z,89.10
2018-12-15T07:41:31.274Z,87.40
2018-12-15T07:44:00.007Z,89.90
2018-12-15T07:46:28.678Z,90.50
2018-12-15T07:48:57.385Z,95.05
2018-12-15T07:51:26.119Z,90.60
2018-12-15T07:53:54.892Z,93.70
2018-12-15T07:56:26.797Z,92.67
2018-12-15T07:58:56.074Z,92.63
2018-12-15T08:01:24.778Z,88.00
2018-12-15T08:03:53.559Z,89.47
2018-12-15T08:06:22.283Z,88.10
2018-12-15T08:08:51.020Z,89.40
2018-12-15T08:11:25.200Z,97.80
2018-12-15T08:13:58.112Z,90.53
2018-12-15T08:16:26.907Z,94.23
2018-12-15T08:18:58.194Z,93.12
2018-12-15T08:21:26.954Z,92.33
2018-12-15T08:23:55.622Z,87.50
2018-12-15T08:26:25.451Z,85.47
2018-12-15T08:28:54.184Z,91.77
2018-12-15T08:31:22.910Z,93.50
2018-12-15T08:33:51.690Z,90.13
2018-12-15T08:36:20.354Z,85.62
2018-12-15T08:38:49.087Z,85.40
2018-12-15T08:41:17.972Z,81.53
2018-12-15T08:43:47.529Z,79.90
2018-12-15T08:46:17.578Z,87.37
2018-12-15T08:48:46.302Z,92.23
2018-12-15T08:51:15.254Z,89.72
2018-12-15T08:53:44.042Z,85.87
2018-12-15T08:56:12.770Z,86.83
2018-12-15T08:58:41.550Z,89.30
2018-12-15T09:01:10.299Z,90.42
2018-12-15T09:03:39.019Z,85.17
2018-12-15T09:06:07.767Z,87.50
2018-12-15T09:08:36.460Z,87.10
2018-12-15T09:11:05.193Z,93.47
2018-12-15T09:13:33.946Z,91.50
2018-12-15T09:16:02.675Z,89.77
2018-12-15T09:18:31.717Z,83.50
2018-12-15T09:21:00.434Z,77.37
2018-12-15T09:23:29.131Z,77.40
2018-12-15T09:25:57.878Z,76.20
2018-12-15T09:28:27.242Z,76.30
2018-12-15T09:30:56.032Z,77.82
2018-12-15T09:33:24.730Z,68.30
2018-12-15T09:35:53.471Z,74.70
2018-12-15T09:38:22.231Z,77.90
2018-12-15T09:40:50.972Z,69.15
2018-12-15T09:43:19.758Z,62.65
2018-12-15T09:45:48.415Z,68.20
2018-12-15T09:48:17.146Z,65.15
2018-12-15T09:50:46.455Z,60.87
2018-12-15T09:53:15.235Z,58.23
2018-12-15T09:55:43.998Z,59.90
2018-12-15T09:58:12.655Z,59.90
2018-12-15T10:00:41.359Z,56.90
2018-12-15T10:03:10.094Z,60.20
2018-12-15T10:05:38.814Z,61.80
2018-12-15T10:08:07.487Z,63.00
2018-12-15T10:10:36.211Z,58.77
2018-12-15T10:13:04.969Z,57.67
2018-12-15T10:15:33.700Z,59.10
2018-12-15T10:18:02.488Z,58.30
2018-12-15T10:20:31.244Z,55.17
2018-12-15T10:22:59.945Z,59.83
2018-12-15T10:25:28.646Z,56.07
2018-12-15T10:27:57.389Z,58.20
2018-12-15T10:30:31.582Z,54.47
2018-12-15T10:33:00.314Z,52.53
2018-12-15T10:35:29.062Z,53.83
2018-12-15T10:37:58.027Z,50.70
2018-12-15T10:40:26.806Z,52.95
2018-12-15T10:42:55.490Z,52.77
2018-12-15T10:45:24.245Z,53.93
2018-12-15T10:47:52.971Z,51.80
2018-12-15T10:50:21.656Z,50.00
2018-12-15T10:52:50.315Z,48.77
2018-12-15T10:55:19.034Z,53.40
2018-12-15T10:57:47.915Z,53.17
2018-12-15T11:00:23.029Z,58.30
2018-12-15T11:02:51.758Z,52.35
2018-12-15T11:05:20.511Z,47.00
2018-12-15T11:07:49.306Z,74.07
2018-12-15T11:10:18.206Z,49.63
2018-12-15T11:12:46.891Z,48.05
2018-12-15T11:15:15.626Z,45.57
2018-12-15T11:17:44.364Z,53.60
2018-12-15T11:20:13.166Z,60.27
2018-12-15T11:22:41.962Z,48.75
2018-12-15T11:25:10.723Z,51.45
2018-12-15T11:27:39.445Z,51.10
2018-12-15T11:30:08.198Z,51.57
2018-12-15T11:32:37.091Z,52.90
2018-12-15T11:35:06.114Z,49.15
2018-12-15T11:37:34.954Z,48.95
2018-12-15T11:40:03.831Z,48.77
2018-12-15T11:42:32.558Z,49.07
2018-12-15T11:45:01.267Z,45.78
2018-12-15T11:47:30.010Z,51.13
2018-12-15T11:49:58.747Z,43.53
2018-12-15T11:52:27.494Z,51.60
2018-12-15T11:54:56.202Z,50.83
2018-12-15T11:57:25.026Z,46.67
2018-12-15T11:59:53.791Z,48.68
2018-12-15T12:02:22.526Z,52.05
2018-12-15T12:04:51.279Z,50.17
2018-12-15T12:07:20.072Z,52.15
2018-12-15T12:09:48.799Z,52.93
2018-12-15T12:12:17.515Z,50.80
2018-12-15T12:14:46.238Z,50.45
2018-12-15T12:17:14.951Z,52.33
2018-12-15T12:19:50.028Z,49.98
2018-12-15T12:22:14.403Z,54.80
2018-12-15T12:24:43.111Z,47.43
2018-12-15T12:27:13.809Z,52.88
2018-12-15T12:29:43.577Z,51.60
2018-12-15T12:32:12.383Z,49.74
2018-12-15T12:34:41.074Z,49.65
2018-12-15T12:37:09.886Z,49.60
2018-12-15T12:39:38.628Z,45.50
2018-12-15T12:42:07.346Z,46.97
2018-12-15T12:44:36.738Z,51.10
2018-12-15T12:47:05.546Z,53.65
2018-12-15T12:49:34.318Z,56.68
2018-12-15T12:52:03.094Z,50.43
2018-12-15T12:54:31.850Z,57.10
2018-12-15T12:57:00.570Z,46.75
2018-12-15T12:59:31.323Z,45.34
2018-12-15T13:02:00.086Z,45.30
2018-12-15T13:04:28.742Z,38.10
2018-12-15T13:06:57.462Z,41.97
2018-12-15T13:09:26.196Z,47.93
2018-12-15T13:11:54.931Z,43.13
2018-12-15T13:14:23.714Z,46.95
2018-12-15T13:16:52.502Z,47.17
2018-12-15T13:19:21.203Z,43.60
2018-12-15T13:21:50.792Z,43.45
2018-12-15T13:24:19.522Z,42.50
2018-12-15T13:26:48.246Z,44.70
2018-12-15T13:29:16.956Z,45.97
2018-12-15T13:31:45.658Z,43.58
2018-12-15T13:34:14.410Z,44.40
2018-12-15T13:36:43.135Z,46.03
2018-12-15T13:39:11.946Z,47.15
2018-12-15T13:41:40.687Z,55.43
2018-12-15T13:44:10.046Z,55.17
2018-12-15T13:46:38.770Z,45.43
2018-12-15T13:49:07.500Z,40.90
2018-12-15T13:51:36.214Z,42.43
2018-12-15T13:54:04.931Z,41.30
2018-12-15T13:56:33.659Z,42.30
2018-12-15T13:59:02.390Z,44.70
2018-12-15T14:01:31.162Z,55.13
2018-12-15T14:03:59.882Z,56.87
2018-12-15T14:06:29.426Z,39.92
2018-12-15T14:08:58.154Z,42.75
2018-12-15T14:11:26.907Z,40.80
2018-12-15T14:13:55.652Z,40.88
2018-12-15T14:16:24.365Z,40.77
2018-12-15T14:18:53.102Z,40.78
2018-12-15T14:21:21.810Z,37.40
2018-12-15T14:23:50.527Z,35.83
2018-12-15T14:26:19.266Z,37.15
2018-12-15T14:28:49.006Z,37.80
2018-12-15T14:31:17.721Z,38.73
2018-12-15T14:33:46.411Z,40.73
2018-12-15T14:36:15.154Z,39.70
2018-12-15T14:38:43.905Z,40.20
2018-12-15T14:41:12.652Z,43.40
2018-12-15T14:43:41.416Z,44.63
2018-12-15T14:46:10.142Z,38.70
2018-12-15T14:48:38.839Z,46.93
2018-12-15T14:51:08.510Z,65.70
2018-12-15T14:53:37.255Z,99.17
2018-12-15T14:56:05.990Z,69.53
2018-12-15T14:58:34.743Z,53.20
2018-12-15T15:01:04.526Z,39.40
2018-12-15T15:03:33.219Z,36.73
2018-12-15T15:06:01.871Z,38.20
2018-12-15T15:08:30.691Z,38.37
2018-12-15T15:10:59.596Z,34.18
2018-12-15T15:13:34.328Z,41.00
2018-12-15T15:15:59.091Z,37.27
2018-12-15T15:18:27.805Z,38.28
2018-12-15T15:20:56.642Z,32.23
2018-12-15T15:23:25.311Z,41.02
2018-12-15T15:25:54.051Z,38.40
2018-12-15T15:28:22.797Z,40.00
2018-12-15T15:30:51.539Z,42.45
2018-12-15T15:33:20.200Z,40.06
2018-12-15T15:35:48.930Z,32.25
2018-12-15T15:38:17.657Z,36.23
2018-12-15T15:40:46.387Z,32.40
2018-12-15T15:43:15.070Z,35.60
2018-12-15T15:45:43.793Z,32.40
2018-12-15T15:48:12.482Z,29.25
2018-12-15T15:50:41.235Z,32.08
2018-12-15T15:53:10.059Z,30.40
2018-12-15T15:55:38.796Z,29.37
2018-12-15T15:58:07.541Z,34.15
2018-12-15T16:00:36.267Z,34.15
2018-12-15T16:03:05.042Z,43.17
2018-12-15T16:05:33.771Z,33.43
2018-12-15T16:08:02.424Z,36.70
2018-12-15T16:10:31.155Z,38.67
2018-12-15T16:12:59.883Z,34.50
2018-12-15T16:15:28.619Z,31.13
2018-12-15T16:17:57.442Z,38.77
2018-12-15T16:20:26.117Z,33.87
2018-12-15T16:22:54.843Z,31.60
2018-12-15T16:25:23.590Z,38.10
2018-12-15T16:27:52.302Z,34.97
2018-12-15T16:30:21.087Z,36.50
2018-12-15T16:32:49.819Z,38.50
2018-12-15T16:35:19.800Z,39.30
2018-12-15T16:37:48.732Z,37.38
2018-12-15T16:40:17.474Z,37.27
2018-12-15T16:42:46.214Z,36.68
2018-12-15T16:45:15.011Z,39.60
2018-12-15T16:47:43.763Z,40.35
2018-12-15T16:50:13.773Z,50.67
2018-12-15T16:52:42.787Z,42.80
2018-12-15T16:55:11.491Z,39.70
2018-12-15T16:57:41.262Z,56.98
2018-12-15T17:00:12.815Z,58.55
2018-12-15T17:02:41.513Z,75.40
2018-12-15T17:05:10.222Z,69.37
2018-12-15T17:07:38.962Z,57.10
2018-12-15T17:10:08.549Z,47.48
2018-12-15T17:12:37.282Z,45.20
2018-12-15T17:15:07.746Z,45.40
2018-12-15T17:17:37.538Z,43.17
2018-12-15T17:20:07.667Z,45.57
2018-12-15T17:22:37.403Z,45.33
2018-12-15T17:25:07.086Z,42.70
2018-12-15T17:27:35.822Z,44.85
2018-12-15T17:30:06.350Z,45.43
2018-12-15T17:32:36.194Z,44.63
2018-12-15T17:35:05.562Z,44.05
2018-12-15T17:37:35.384Z,42.17
2018-12-15T17:40:06.687Z,43.60
2018-12-15T17:42:35.463Z,43.30
2018-12-15T17:45:04.351Z,46.07
2018-12-15T17:47:33.098Z,46.60
2018-12-15T17:50:01.794Z,42.90
2018-12-15T17:52:30.514Z,45.90
2018-12-15T17:54:59.246Z,42.43
2018-12-15T17:57:27.979Z,44.93
2018-12-15T17:59:56.738Z,42.87
2018-12-15T18:02:26.119Z,39.75
2018-12-15T18:04:54.847Z,37.10
2018-12-15T18:07:23.582Z,42.77
2018-12-15T18:09:52.334Z,36.23
2018-12-15T18:12:21.078Z,38.65
2018-12-15T18:14:49.840Z,38.60
2018-12-15T18:17:18.543Z,37.70
2018-12-15T18:19:47.223Z,38.10
2018-12-15T18:22:15.955Z,37.33
2018-12-15T18:24:45.407Z,39.92
2018-12-15T18:27:14.090Z,34.63
2018-12-15T18:29:42.787Z,38.80
2018-12-15T18:32:11.602Z,39.20
2018-12-15T18:34:40.341Z,37.57
2018-12-15T18:37:09.089Z,39.43
2018-12-15T18:39:37.819Z,35.45
2018-12-15T18:42:10.827Z,38.77
2018-12-15T18:44:37.235Z,34.90
2018-12-15T18:47:05.934Z,36.07
2018-12-15T18:49:34.679Z,38.20
2018-12-15T18:52:03.467Z,38.43
2018-12-15T18:54:32.286Z,36.53
2018-12-15T18:57:01.091Z,33.63
2018-12-15T18:59:31.141Z,35.75
2018-12-15T19:01:59.895Z,30.55
2018-12-15T19:04:28.683Z,33.18
2018-12-15T19:06:57.351Z,33.02
2018-12-15T19:09:26.115Z,33.40
2018-12-15T19:11:55.927Z,29.90
2018-12-15T19:14:24.647Z,27.27
2018-12-15T19:16:53.419Z,30.40
2018-12-15T19:19:22.162Z,32.80
2018-12-15T19:21:50.843Z,27.00
2018-12-15T19:24:19.607Z,31.87
2018-12-15T19:26:48.326Z,31.60
2018-12-15T19:29:17.131Z,32.10
2018-12-15T19:31:45.883Z,31.07
2018-12-15T19:34:17.687Z,30.55
2018-12-15T19:36:45.918Z,28.63
2018-12-15T19:39:14.714Z,31.90
2018-12-15T19:41:43.456Z,31.70
2018-12-15T19:44:12.206Z,32.23
2018-12-15T19:46:40.934Z,31.83
2018-12-15T19:49:09.671Z,32.47
2018-12-15T19:51:38.394Z,30.40
2018-12-15T19:54:07.139Z,31.45
2018-12-15T19:56:36.874Z,31.97
2018-12-15T19:59:05.586Z,49.90
2018-12-15T20:01:34.311Z,37.37
2018-12-15T20:04:03.055Z,52.97
2018-12-15T20:06:32.547Z,42.60
2018-12-15T20:09:01.226Z,51.57
2018-12-15T20:11:29.994Z,44.30
2018-12-15T20:13:58.646Z,46.30
2018-12-15T20:16:27.439Z,52.00
2018-12-15T20:18:56.154Z,37.97
2018-12-15T20:21:24.882Z,32.37
2018-12-15T20:23:53.735Z,27.67
2018-12-15T20:26:22.487Z,32.03
2018-12-15T20:28:51.186Z,28.40
2018-12-15T20:31:19.912Z,30.62
2018-12-15T20:33:48.586Z,28.07
2018-12-15T20:36:17.342Z,33.30
2018-12-15T20:38:46.054Z,31.08
2018-12-15T20:41:14.755Z,29.27
2018-12-15T20:43:43.514Z,30.27
2018-12-15T20:46:12.259Z,27.67
2018-12-15T20:48:40.995Z,28.95
2018-12-15T20:51:09.719Z,26.17
2018-12-15T20:53:38.472Z,28.40
2018-12-15T20:56:07.208Z,29.30
2018-12-15T20:58:35.969Z,29.77
2018-12-15T21:01:04.806Z,33.20
2018-12-15T21:03:33.535Z,30.75
2018-12-15T21:06:02.300Z,29.32
2018-12-15T21:08:31.039Z,28.52
2018-12-15T21:10:59.822Z,29.98
2018-12-15T21:13:28.528Z,33.05
2018-12-15T21:15:58.413Z,28.43
2018-12-15T21:18:27.205Z,30.90
2018-12-15T21:20:55.931Z,28.85
2018-12-15T21:23:24.707Z,31.77
2018-12-15T21:25:53.442Z,25.80
2018-12-15T21:28:22.162Z,31.40
2018-12-15T21:30:50.834Z,28.75
2018-12-15T21:33:19.590Z,28.03
2018-12-15T21:35:48.322Z,29.30
2018-12-15T21:38:17.066Z,29.87
2018-12-15T21:40:45.845Z,26.30
2018-12-15T21:43:14.578Z,27.47
2018-12-15T21:45:43.320Z,29.37
2018-12-15T21:48:12.112Z,27.15
2018-12-15T21:50:40.899Z,28.75
2018-12-15T21:53:09.556Z,28.67
2018-12-15T21:55:38.307Z,29.83
2018-12-15T21:58:07.058Z,27.85
2018-12-15T22:00:35.766Z,29.05
2018-12-15T22:03:04.582Z,30.12
2018-12-15T22:05:33.275Z,28.07
2018-12-15T22:08:01.971Z,26.05
2018-12-15T22:10:31.100Z,24.65
2018-12-15T22:12:59.894Z,25.40
2018-12-15T22:15:28.654Z,30.80
2018-12-15T22:17:57.382Z,25.97
2018-12-15T22:20:26.117Z,32.17
2018-12-15T22:22:54.800Z,29.10
2018-12-15T22:25:23.530Z,26.40
2018-12-15T22:27:52.211Z,26.30
2018-12-15T22:30:20.915Z,25.97
2018-12-15T22:32:50.318Z,26.15
2018-12-15T22:35:19.029Z,29.17
2018-12-15T22:37:47.839Z,28.52
2018-12-15T22:40:17.632Z,26.97
2018-12-15T22:42:46.345Z,26.43
2018-12-15T22:45:15.052Z,28.62
2018-12-15T22:47:43.802Z,27.13
2018-12-15T22:50:12.564Z,26.27
2018-12-15T22:52:41.362Z,32.98
2018-12-15T22:55:10.585Z,29.90
2018-12-15T22:57:39.374Z,27.32
2018-12-15T23:00:10.511Z,30.00
2018-12-15T23:02:41.135Z,29.02
2018-12-15T23:05:10.041Z,27.63
2018-12-15T23:07:38.765Z,29.42
2018-12-15T23:10:08.214Z,30.37
2018-12-15T23:12:36.983Z,28.50
2018-12-15T23:15:06.764Z,27.40
2018-12-15T23:17:35.479Z,29.97
2018-12-15T23:20:05.514Z,30.10
2018-12-15T23:22:34.238Z,29.50
2018-12-15T23:25:03.010Z,31.70
2018-12-15T23:27:31.678Z,28.40
2018-12-15T23:30:00.407Z,31.90
2018-12-15T23:32:29.076Z,28.62
2018-12-15T23:34:57.819Z,30.83
2018-12-15T23:37:26.530Z,30.75
2018-12-15T23:39:55.242Z,32.30
2018-12-15T23:42:23.986Z,32.90
2018-12-15T23:44:52.803Z,32.58
2018-12-15T23:47:21.476Z,31.77
2018-12-15T23:49:50.186Z,31.97
2018-12-15T23:52:23.287Z,37.00
2018-12-15T23:54:49.643Z,30.43
2018-12-15T23:57:18.414Z,32.85
2018-12-15T23:59:47.070Z,34.08
